URO680 EGHH-ZUCK
Flight info
| Callsign | URO680 |
|---|---|
| Flight time | N/A |
| Altitude | 29000 |
| Route | GWC N16 BIG UL9 KONAN DCT KOK DCT REMBA DCT MATUG DCT BOMBI DCT TENLO DCT DEXIT DCT PESAT DCT TEGRI/N0479F310 DCT UDROS UM859 KARDE UN644 ROLIN N644 ODILI DCT BARAD M747 BAGVA DCT METKA B476 TAGEP/N0481F330 B476 DARVA/K0891F330 T898 OGOLI N193 SR L163 TISIB L141 ETAVI/K0882F350 L141 KAMUD/K0880S1070 W186 SADAN W187 TUSLI W112 VIKUP W191 ATNOK/K0863S1130 W191 DNC W565 BIGUX B330 OVRAL W242 VIPAG/K0874S1160 W666 VINEX VINXD2 |
| Aircraft | A343/H-SDE2E3FGHIJ4J5M1RWXY/LB1D1 |
Departure
| Time | 2026-04-28 21:57 |
|---|---|
| Airport | Bournemouth Airport (EGHH) |
Arrival
| Time | N/A |
|---|---|
| Airport | Chongqing Jiangbei International Airport (ZUCK) |
| Time | Latitude | Longitude | Altitude | Speed | Heading |
|---|---|---|---|---|---|
| 2026-04-28 21:28 | 50.78796 | -1.84195 | 49 ft | 0 kts | 207° |
| 2026-04-28 21:47 | 50.78793 | -1.84194 | 48 ft | 1 kts | 187° |
| 2026-04-28 21:47 | 50.78781 | -1.84188 | 46 ft | 3 kts | 170° |
| 2026-04-28 21:48 | 50.78750 | -1.84180 | 48 ft | 6 kts | 169° |
| 2026-04-28 21:48 | 50.78709 | -1.84165 | 48 ft | 6 kts | 166° |
| 2026-04-28 21:48 | 50.78676 | -1.84152 | 48 ft | 4 kts | 166° |
| 2026-04-28 21:48 | 50.78650 | -1.84141 | 48 ft | 3 kts | 166° |
| 2026-04-28 21:49 | 50.78630 | -1.84133 | 48 ft | 2 kts | 166° |
| 2026-04-28 21:49 | 50.78607 | -1.84124 | 48 ft | 6 kts | 165° |
| 2026-04-28 21:49 | 50.78561 | -1.84104 | 48 ft | 8 kts | 165° |
| 2026-04-28 21:49 | 50.78497 | -1.84077 | 48 ft | 11 kts | 165° |
| 2026-04-28 21:50 | 50.78415 | -1.84042 | 48 ft | 13 kts | 165° |
| 2026-04-28 21:50 | 50.78317 | -1.84001 | 48 ft | 16 kts | 165° |
| 2026-04-28 21:50 | 50.78204 | -1.83953 | 48 ft | 18 kts | 165° |
| 2026-04-28 21:50 | 50.78081 | -1.83910 | 48 ft | 16 kts | 187° |
| 2026-04-28 21:51 | 50.78048 | -1.83975 | 47 ft | 5 kts | 259° |
| 2026-04-28 21:51 | 50.78039 | -1.84041 | 47 ft | 7 kts | 258° |
| 2026-04-28 21:51 | 50.78025 | -1.84133 | 46 ft | 9 kts | 256° |
| 2026-04-28 21:51 | 50.78007 | -1.84241 | 45 ft | 11 kts | 255° |
| 2026-04-28 21:52 | 50.77987 | -1.84366 | 47 ft | 13 kts | 255° |
| 2026-04-28 21:52 | 50.77963 | -1.84509 | 48 ft | 14 kts | 255° |
| 2026-04-28 21:52 | 50.77938 | -1.84656 | 46 ft | 14 kts | 255° |
| 2026-04-28 21:52 | 50.77913 | -1.84806 | 49 ft | 15 kts | 255° |
| 2026-04-28 21:53 | 50.77885 | -1.84975 | 51 ft | 17 kts | 255° |
| 2026-04-28 21:53 | 50.77854 | -1.85157 | 47 ft | 18 kts | 255° |
| 2026-04-28 21:53 | 50.77821 | -1.85358 | 50 ft | 19 kts | 255° |
| 2026-04-28 21:53 | 50.77787 | -1.85562 | 50 ft | 19 kts | 255° |
| 2026-04-28 21:54 | 50.77724 | -1.85709 | 45 ft | 14 kts | 222° |
| 2026-04-28 21:54 | 50.77727 | -1.85768 | 46 ft | 3 kts | 313° |
| 2026-04-28 21:54 | 50.77742 | -1.85768 | 48 ft | 2 kts | 360° |
| 2026-04-28 21:54 | 50.77756 | -1.85763 | 51 ft | 1 kts | 21° |
| 2026-04-28 21:55 | 50.77761 | -1.85754 | 48 ft | 1 kts | 45° |
| 2026-04-28 21:55 | 50.77762 | -1.85746 | 49 ft | 1 kts | 68° |
| 2026-04-28 21:55 | 50.77768 | -1.85695 | 50 ft | 7 kts | 77° |
| 2026-04-28 21:55 | 50.77790 | -1.85550 | 48 ft | 28 kts | 76° |
| 2026-04-28 21:56 | 50.77883 | -1.85017 | 52 ft | 75 kts | 74° |
| 2026-04-28 21:56 | 50.78053 | -1.83979 | 47 ft | 119 kts | 75° |
| 2026-04-28 21:56 | 50.78294 | -1.82563 | 45 ft | 154 kts | 74° |
| 2026-04-28 21:56 | 50.78563 | -1.80800 | 375 ft | 161 kts | 76° |
| 2026-04-28 21:57 | 50.78688 | -1.79047 | 840 ft | 159 kts | 83° |
| 2026-04-28 21:57 | 50.78770 | -1.77312 | 1294 ft | 163 kts | 78° |
| 2026-04-28 21:57 | 50.79188 | -1.75639 | 1692 ft | 161 kts | 58° |
| 2026-04-28 21:57 | 50.79867 | -1.74253 | 2063 ft | 165 kts | 52° |
| 2026-04-28 21:58 | 50.80678 | -1.72781 | 2107 ft | 188 kts | 53° |
| 2026-04-28 21:58 | 50.81534 | -1.71117 | 2316 ft | 203 kts | 56° |
| 2026-04-28 21:58 | 50.82393 | -1.69243 | 2540 ft | 217 kts | 59° |
| 2026-04-28 21:58 | 50.83247 | -1.67166 | 2795 ft | 232 kts | 61° |
| 2026-04-28 21:59 | 50.84115 | -1.64913 | 3041 ft | 246 kts | 62° |
| 2026-04-28 21:59 | 50.85002 | -1.62547 | 3488 ft | 254 kts | 62° |
| 2026-04-28 21:59 | 50.85908 | -1.60114 | 3973 ft | 260 kts | 63° |
| 2026-04-28 22:00 | 50.87786 | -1.55093 | 5095 ft | 267 kts | 63° |
| 2026-04-28 22:00 | 50.88745 | -1.52543 | 5591 ft | 272 kts | 62° |
| 2026-04-28 22:00 | 50.89719 | -1.49961 | 6113 ft | 276 kts | 62° |
| 2026-04-28 22:00 | 50.90696 | -1.47367 | 6604 ft | 280 kts | 62° |
| 2026-04-28 22:01 | 50.91665 | -1.44792 | 7097 ft | 283 kts | 62° |
| 2026-04-28 22:01 | 50.92687 | -1.42078 | 7612 ft | 285 kts | 62° |
| 2026-04-28 22:01 | 50.93704 | -1.39374 | 8131 ft | 288 kts | 62° |
| 2026-04-28 22:01 | 50.94606 | -1.36768 | 8538 ft | 289 kts | 70° |
| 2026-04-28 22:02 | 50.95063 | -1.33692 | 9035 ft | 288 kts | 89° |
| 2026-04-28 22:02 | 50.94907 | -1.30520 | 9525 ft | 290 kts | 99° |
| 2026-04-28 22:02 | 50.94503 | -1.27372 | 9968 ft | 293 kts | 103° |
| 2026-04-28 22:02 | 50.93973 | -1.24228 | 10401 ft | 296 kts | 105° |
| 2026-04-28 22:03 | 50.93389 | -1.21049 | 10613 ft | 306 kts | 106° |
| 2026-04-28 22:03 | 50.92791 | -1.17818 | 10806 ft | 316 kts | 105° |
| 2026-04-28 22:03 | 50.92175 | -1.14415 | 11018 ft | 325 kts | 105° |
| 2026-04-28 22:03 | 50.91558 | -1.10912 | 11236 ft | 334 kts | 105° |
| 2026-04-28 22:04 | 50.90942 | -1.07337 | 11573 ft | 339 kts | 105° |
| 2026-04-28 22:04 | 50.90322 | -1.03696 | 11987 ft | 341 kts | 105° |
| 2026-04-28 22:04 | 50.89705 | -1.00064 | 12442 ft | 343 kts | 105° |
| 2026-04-28 22:04 | 50.89087 | -0.96432 | 12916 ft | 345 kts | 105° |
| 2026-04-28 22:05 | 50.88639 | -0.93801 | 13229 ft | 346 kts | 105° |
| 2026-04-28 22:05 | 50.87987 | -0.89980 | 13644 ft | 349 kts | 105° |
| 2026-04-28 22:05 | 50.87358 | -0.86315 | 14073 ft | 351 kts | 105° |
| 2026-04-28 22:05 | 50.86845 | -0.82545 | 14535 ft | 351 kts | 98° |
| 2026-04-28 22:06 | 50.86770 | -0.78659 | 14917 ft | 356 kts | 86° |
| 2026-04-28 22:06 | 50.87275 | -0.74797 | 15276 ft | 362 kts | 73° |
| 2026-04-28 22:06 | 50.88412 | -0.71211 | 15654 ft | 371 kts | 59° |
| 2026-04-28 22:06 | 50.90027 | -0.67986 | 16043 ft | 376 kts | 53° |
| 2026-04-28 22:07 | 50.91805 | -0.64939 | 16426 ft | 379 kts | 50° |
| 2026-04-28 22:07 | 50.93665 | -0.61952 | 16844 ft | 381 kts | 49° |
| 2026-04-28 22:07 | 50.95545 | -0.58986 | 17234 ft | 382 kts | 49° |
| 2026-04-28 22:07 | 50.97429 | -0.55992 | 17659 ft | 384 kts | 50° |
| 2026-04-28 22:08 | 50.99309 | -0.52964 | 18061 ft | 386 kts | 50° |
| 2026-04-28 22:08 | 51.01184 | -0.49903 | 18462 ft | 387 kts | 50° |
| 2026-04-28 22:08 | 51.03057 | -0.46817 | 18817 ft | 389 kts | 50° |
| 2026-04-28 22:08 | 51.04930 | -0.43713 | 19172 ft | 390 kts | 50° |
| 2026-04-28 22:09 | 51.06804 | -0.40596 | 19533 ft | 391 kts | 50° |
| 2026-04-28 22:09 | 51.08687 | -0.37463 | 19899 ft | 392 kts | 51° |
| 2026-04-28 22:09 | 51.10568 | -0.34329 | 20250 ft | 393 kts | 51° |
| 2026-04-28 22:09 | 51.12089 | -0.31794 | 20517 ft | 394 kts | 51° |
| 2026-04-28 22:10 | 51.13860 | -0.28836 | 20458 ft | 395 kts | 47° |
| 2026-04-28 22:10 | 51.15718 | -0.25730 | 20955 ft | 400 kts | 51° |
| 2026-04-28 22:10 | 51.19353 | -0.19664 | 21798 ft | 397 kts | 51° |
| 2026-04-28 22:11 | 51.21010 | -0.16890 | 22049 ft | 399 kts | 51° |
| 2026-04-28 22:11 | 51.22928 | -0.13668 | 22319 ft | 401 kts | 51° |
| 2026-04-28 22:11 | 51.24829 | -0.10468 | 22619 ft | 402 kts | 51° |
| 2026-04-28 22:11 | 51.26754 | -0.07225 | 22925 ft | 403 kts | 51° |
| 2026-04-28 22:12 | 51.28627 | -0.03894 | 23213 ft | 402 kts | 56° |
| 2026-04-28 22:12 | 51.30181 | -0.00202 | 23483 ft | 399 kts | 64° |
| 2026-04-28 22:12 | 51.31290 | 0.03798 | 23621 ft | 402 kts | 74° |
| 2026-04-28 22:12 | 51.31884 | 0.08142 | 23857 ft | 402 kts | 85° |
| 2026-04-28 22:13 | 51.31909 | 0.12617 | 24153 ft | 402 kts | 95° |
| 2026-04-28 22:13 | 51.31540 | 0.17042 | 24436 ft | 403 kts | 98° |
| 2026-04-28 22:13 | 51.31037 | 0.21462 | 24681 ft | 404 kts | 100° |
| 2026-04-28 22:13 | 51.30473 | 0.25864 | 24929 ft | 405 kts | 101° |
| 2026-04-28 22:14 | 51.29889 | 0.30276 | 25182 ft | 406 kts | 101° |
| 2026-04-28 22:14 | 51.29311 | 0.34695 | 25424 ft | 407 kts | 100° |
| 2026-04-28 22:14 | 51.28743 | 0.39124 | 25645 ft | 408 kts | 100° |
| 2026-04-28 22:14 | 51.28178 | 0.43570 | 25872 ft | 409 kts | 100° |
| 2026-04-28 22:15 | 51.27616 | 0.48034 | 26076 ft | 410 kts | 100° |
| 2026-04-28 22:15 | 51.27052 | 0.52530 | 26094 ft | 416 kts | 100° |
| 2026-04-28 22:15 | 51.26564 | 0.56430 | 26216 ft | 418 kts | 100° |
| 2026-04-28 22:15 | 51.25994 | 0.60984 | 26451 ft | 418 kts | 100° |
| 2026-04-28 22:16 | 51.25422 | 0.65523 | 26640 ft | 418 kts | 100° |
| 2026-04-28 22:16 | 51.24840 | 0.70085 | 26835 ft | 419 kts | 100° |
| 2026-04-28 22:16 | 51.24253 | 0.74649 | 27015 ft | 420 kts | 100° |
| 2026-04-28 22:16 | 51.23666 | 0.79214 | 27183 ft | 421 kts | 100° |
| 2026-04-28 22:17 | 51.23079 | 0.83791 | 27353 ft | 422 kts | 100° |
| 2026-04-28 22:17 | 51.22489 | 0.88381 | 27518 ft | 423 kts | 100° |
| 2026-04-28 22:17 | 51.21902 | 0.92940 | 27689 ft | 424 kts | 100° |
| 2026-04-28 22:17 | 51.21318 | 0.97464 | 27771 ft | 426 kts | 100° |
| 2026-04-28 22:18 | 51.20714 | 1.02122 | 27759 ft | 431 kts | 100° |
| 2026-04-28 22:18 | 51.20098 | 1.06890 | 27956 ft | 431 kts | 100° |
| 2026-04-28 22:18 | 51.19489 | 1.11559 | 28171 ft | 432 kts | 100° |
| 2026-04-28 22:18 | 51.18880 | 1.16187 | 28355 ft | 432 kts | 100° |
| 2026-04-28 22:19 | 51.18261 | 1.20883 | 28530 ft | 433 kts | 100° |
| 2026-04-28 22:19 | 51.17640 | 1.25570 | 28702 ft | 434 kts | 100° |
| 2026-04-28 22:19 | 51.17014 | 1.30288 | 28873 ft | 435 kts | 100° |
| 2026-04-28 22:19 | 51.16441 | 1.35022 | 29057 ft | 434 kts | 96° |
| 2026-04-28 22:20 | 51.16108 | 1.39812 | 29240 ft | 434 kts | 94° |
| 2026-04-28 22:20 | 51.15597 | 1.49417 | 29248 ft | 435 kts | 93° |
| 2026-04-28 22:21 | 51.15142 | 1.59040 | 29333 ft | 436 kts | 93° |
| 2026-04-28 22:21 | 51.14913 | 1.63859 | 29588 ft | 435 kts | 93° |
| 2026-04-28 22:21 | 51.14680 | 1.68664 | 29840 ft | 434 kts | 93° |
| 2026-04-28 22:21 | 51.14445 | 1.73426 | 30059 ft | 433 kts | 93° |
| 2026-04-28 22:22 | 51.14204 | 1.78223 | 30272 ft | 432 kts | 93° |
| 2026-04-28 22:22 | 51.13963 | 1.82985 | 30447 ft | 431 kts | 94° |
| 2026-04-28 22:22 | 51.13723 | 1.87670 | 30564 ft | 432 kts | 94° |
| 2026-04-28 22:23 | 51.13224 | 1.97281 | 30557 ft | 438 kts | 94° |
| 2026-04-28 22:23 | 51.12972 | 2.02128 | 30722 ft | 437 kts | 94° |
| 2026-04-28 22:23 | 51.12720 | 2.06945 | 30884 ft | 437 kts | 94° |
| 2026-04-28 22:23 | 51.12463 | 2.11768 | 31018 ft | 437 kts | 94° |
| 2026-04-28 22:24 | 51.12207 | 2.16513 | 31141 ft | 437 kts | 94° |
| 2026-04-28 22:24 | 51.11678 | 2.26183 | 31212 ft | 439 kts | 94° |
| 2026-04-28 22:25 | 51.11144 | 2.35844 | 31207 ft | 437 kts | 94° |
| 2026-04-28 22:25 | 51.10604 | 2.45495 | 31210 ft | 440 kts | 94° |
| 2026-04-28 22:26 | 51.10055 | 2.55154 | 31210 ft | 441 kts | 94° |
| 2026-04-28 22:26 | 51.09365 | 2.64843 | 31204 ft | 441 kts | 100° |
| 2026-04-28 22:27 | 51.07852 | 2.74325 | 31204 ft | 442 kts | 104° |
| 2026-04-28 22:27 | 51.06157 | 2.83717 | 31229 ft | 442 kts | 104° |
| 2026-04-28 22:28 | 51.04418 | 2.93142 | 31226 ft | 445 kts | 104° |
| 2026-04-28 22:28 | 51.02684 | 3.02553 | 31227 ft | 446 kts | 104° |
| 2026-04-28 22:29 | 51.00939 | 3.12021 | 31219 ft | 446 kts | 104° |
| 2026-04-28 22:29 | 50.99190 | 3.21483 | 31214 ft | 446 kts | 104° |
| 2026-04-28 22:30 | 50.97453 | 3.30831 | 31200 ft | 446 kts | 105° |
| 2026-04-28 22:30 | 50.95681 | 3.40317 | 31199 ft | 451 kts | 105° |